Altdorf, Wisconsin
Current Conditions -  °F | °C
As of 9:54 PM on Thursday 27 Nov 2014 (Local Time) from KISW Reporting Station
Clear Clear  
Wind Chill:   Ceiling: Unl
Heat Index:   Visibility: NA
Dew Point: -5°   Wind: 0mph
Humidity: 79%   Direction: NA
Pressure: 30.35"   Gusts: NA
Location:  44.4583°N, 90.0009°W
Report Text: KISW 280354Z AUTO 00000KT CLR M18/M21 A3035 RMK AO2 SLP305 T11781206 $
Loading
Personal Weather Stations






























Interactive Weather Map New forecast layout! Learn more

10-Day Weather Forecast

Advertisements
Track Severe Weather on mobile